Airfield :
LOGIN :

Register | Disclaimer

   EN    FR    IT 

 










Legend :    VFR   Marginal VFR   IFR   Intensive IFR   Very Intensive IFR
Visi :
Ceiling :
>= 8 km
>= 3000ft
5 to 8 km
1000 to 3000 ft
1500m to 5 km
500 to 1000 ft
800 to 1500m
200 to 500 ft
< 800m
< 200 ft
Symbols :   Thunderstorms  Fog  Heavy snow  Heavy precipitations  Wind > 20 kt
SIGMETs :     Misc.  Thunderstorms  Icing  Turbulence  Mountain Waves  Volcanic Ashes







- Airport Elevation : 256 ft
- IATA code : CFR
- Download approach charts


LFRK - Caen

CURRENT METAR :
  • 281230Z AUTO 24013KT 9999 FEW042 SCT049 BKN056 20/12 Q1014 NOSIG

EXPIRED METARs :
  • 281200Z AUTO 24014KT 200V260 9999 FEW038 BKN050 BKN090 21/12 Q1014 NOSIG
  • 281130Z AUTO 24013KT 9999 FEW036 BKN044 BKN052 21/12 Q1014 NOSIG
  • 281100Z AUTO 24011KT 9999 SCT034 BKN040 BKN060 20/12 Q1014 NOSIG
  • 281030Z AUTO 24012KT 210V270 9999 FEW029 BKN035 BKN060 20/12 Q1014 NOSIG
  • 281000Z AUTO 24012KT 200V270 9999 BKN027 BKN033 BKN039 20/13 Q1014 NOSIG

TAF TAF LFRK
Valid from the 28 at 09:00 until the 28 at 18:00 UTC


280800Z 2809/2818 22010KT 9999 SCT030
PROB30
TEMPO 2813/2817 -SHRA
Met : +33 2 31 26 68 11
No reported NOTAMs for that airfield.



MET'MAP, your aeronautical weather chart ! - Copyright ORBIFLY December 2007 - Disclaimer

ORBIFLY MET'MAP TEAM :

Programming & Development : Alexandra Zaïnal
Concept & Development : Baudouin d'Aumeries
Co-Development & Prog : Marc-Olivier Méhu
Technical & hardware support : Manuel Goepfert

Contact : metmap@orbifly.com




SOURCES & CREDITS :

   NOAA